createdAt,value
2017-12-03T00:01:54.039Z,23.42
2017-12-03T00:04:24.992Z,23.36
2017-12-03T00:06:55.492Z,23.17
2017-12-03T00:09:25.764Z,23.25
2017-12-03T00:11:58.210Z,23.54
2017-12-03T00:14:28.916Z,23.73
2017-12-03T00:16:59.685Z,22.90
2017-12-03T00:19:30.224Z,22.49
2017-12-03T00:22:00.780Z,22.58
2017-12-03T00:24:31.262Z,23.02
2017-12-03T00:27:01.735Z,23.26
2017-12-03T00:29:32.356Z,23.37
2017-12-03T00:32:03.235Z,23.37
2017-12-03T00:34:33.947Z,23.41
2017-12-03T00:37:04.150Z,23.36
2017-12-03T00:39:34.478Z,23.38
2017-12-03T00:42:04.973Z,23.41
2017-12-03T00:44:35.462Z,23.45
2017-12-03T00:47:05.517Z,23.43
2017-12-03T00:49:36.333Z,23.45
2017-12-03T00:52:06.722Z,23.45
2017-12-03T00:54:37.137Z,23.48
2017-12-03T00:57:07.831Z,23.45
2017-12-03T00:59:38.122Z,23.52
2017-12-03T01:02:08.498Z,23.74
2017-12-03T01:04:39.167Z,23.68
2017-12-03T01:07:09.534Z,22.76
2017-12-03T01:09:39.999Z,22.63
2017-12-03T01:12:10.773Z,23.09
2017-12-03T01:14:41.262Z,23.43
2017-12-03T01:17:11.640Z,23.61
2017-12-03T01:19:42.586Z,23.65
2017-12-03T01:22:13.009Z,23.72
2017-12-03T01:24:43.200Z,23.74
2017-12-03T01:27:13.835Z,23.84
2017-12-03T01:29:44.232Z,23.86
2017-12-03T01:32:15.123Z,23.83
2017-12-03T01:34:45.500Z,23.86
2017-12-03T01:37:15.965Z,23.86
2017-12-03T01:39:46.427Z,23.92
2017-12-03T01:42:16.776Z,23.96
2017-12-03T01:44:47.714Z,23.95
2017-12-03T01:47:17.991Z,23.97
2017-12-03T01:49:48.324Z,24.09
2017-12-03T01:52:19.142Z,24.22
2017-12-03T01:54:49.513Z,23.20
2017-12-03T01:57:20.228Z,22.76
2017-12-03T01:59:50.920Z,22.74
2017-12-03T02:02:21.511Z,23.21
2017-12-03T02:04:52.127Z,23.39
2017-12-03T02:07:22.478Z,23.51
2017-12-03T02:09:53.174Z,23.59
2017-12-03T02:12:23.552Z,23.63
2017-12-03T02:14:53.970Z,23.67
2017-12-03T02:17:26.274Z,23.65
2017-12-03T02:19:56.909Z,23.57
2017-12-03T02:22:27.751Z,23.48
2017-12-03T02:25:00.300Z,23.39
2017-12-03T02:27:30.927Z,23.36
2017-12-03T02:30:02.791Z,23.33
2017-12-03T02:32:33.443Z,23.33
2017-12-03T02:35:03.828Z,23.35
2017-12-03T02:37:34.420Z,23.43
2017-12-03T02:40:04.852Z,23.53
2017-12-03T02:42:36.303Z,23.89
2017-12-03T02:45:06.754Z,23.14
2017-12-03T02:47:39.030Z,22.61
2017-12-03T02:50:09.861Z,22.57
2017-12-03T02:52:40.900Z,22.98
2017-12-03T02:55:11.318Z,23.26
2017-12-03T02:57:41.616Z,23.47
2017-12-03T03:00:18.167Z,23.56
2017-12-03T03:02:49.009Z,23.58
2017-12-03T03:05:19.691Z,23.58
2017-12-03T03:07:50.517Z,23.62
2017-12-03T03:10:20.842Z,23.62
2017-12-03T03:12:52.045Z,23.66
2017-12-03T03:15:22.725Z,23.63
2017-12-03T03:17:53.118Z,23.63
2017-12-03T03:20:23.644Z,23.79
2017-12-03T03:22:54.275Z,23.72
2017-12-03T03:25:24.628Z,23.66
2017-12-03T03:27:54.825Z,23.75
2017-12-03T03:30:25.091Z,23.79
2017-12-03T03:32:55.464Z,23.59
2017-12-03T03:35:25.831Z,22.72
2017-12-03T03:37:58.191Z,22.36
2017-12-03T03:40:29.325Z,22.69
2017-12-03T03:43:01.914Z,22.94
2017-12-03T03:45:32.148Z,23.07
2017-12-03T03:48:08.235Z,23.11
2017-12-03T03:50:40.175Z,23.18
2017-12-03T03:53:13.029Z,23.16
2017-12-03T03:55:45.174Z,23.13
2017-12-03T03:58:15.553Z,23.08
2017-12-03T04:00:46.852Z,23.03
2017-12-03T04:03:18.839Z,22.97
2017-12-03T04:05:50.978Z,22.89
2017-12-03T04:08:23.087Z,22.99
2017-12-03T04:10:53.497Z,22.92
2017-12-03T04:13:23.918Z,22.98
2017-12-03T04:15:54.743Z,23.02
2017-12-03T04:18:26.839Z,23.20
2017-12-03T04:20:57.317Z,23.57
2017-12-03T04:23:27.791Z,22.96
2017-12-03T04:25:58.204Z,22.43
2017-12-03T04:28:30.581Z,22.27
2017-12-03T04:31:00.990Z,22.63
2017-12-03T04:33:33.102Z,22.87
2017-12-03T04:36:03.679Z,23.00
2017-12-03T04:38:34.155Z,23.04
2017-12-03T04:41:04.735Z,23.03
2017-12-03T04:43:35.017Z,23.12
2017-12-03T04:46:07.560Z,23.08
2017-12-03T04:48:38.193Z,23.11
2017-12-03T04:51:08.625Z,23.04
2017-12-03T04:53:40.806Z,23.07
2017-12-03T04:56:13.423Z,23.00
2017-12-03T04:58:45.648Z,22.95
2017-12-03T05:01:16.143Z,22.93
2017-12-03T05:03:46.642Z,22.84
2017-12-03T05:06:18.755Z,23.00
2017-12-03T05:08:51.567Z,23.11
2017-12-03T05:11:21.963Z,23.45
2017-12-03T05:13:52.378Z,23.01
2017-12-03T05:16:24.669Z,22.29
2017-12-03T05:18:55.263Z,22.11
2017-12-03T05:21:25.539Z,22.49
2017-12-03T05:23:55.944Z,22.77
2017-12-03T05:26:26.679Z,22.92
2017-12-03T05:28:57.491Z,22.97
2017-12-03T05:31:29.598Z,23.03
2017-12-03T05:34:00.138Z,22.98
2017-12-03T05:36:30.548Z,23.01
2017-12-03T05:39:00.874Z,22.93
2017-12-03T05:41:31.799Z,22.89
2017-12-03T05:44:02.121Z,22.84
2017-12-03T05:46:32.549Z,22.73
2017-12-03T05:49:03.068Z,22.71
2017-12-03T05:51:35.418Z,22.69
2017-12-03T05:54:05.860Z,22.75
2017-12-03T05:56:37.159Z,22.83
2017-12-03T05:59:07.798Z,22.99
2017-12-03T06:01:38.268Z,23.14
2017-12-03T06:04:08.679Z,23.16
2017-12-03T06:06:39.471Z,22.27
2017-12-03T06:09:09.747Z,21.94
2017-12-03T06:11:40.041Z,22.23
2017-12-03T06:14:10.395Z,22.58
2017-12-03T06:16:40.786Z,22.72
2017-12-03T06:19:11.313Z,22.81
2017-12-03T06:21:41.728Z,22.78
2017-12-03T06:24:13.291Z,22.80
2017-12-03T06:26:43.788Z,22.72
2017-12-03T06:29:14.183Z,22.73
2017-12-03T06:31:44.535Z,22.63
2017-12-03T06:34:16.887Z,22.61
2017-12-03T06:36:47.679Z,22.55
2017-12-03T06:39:20.242Z,22.47
2017-12-03T06:41:50.763Z,22.46
2017-12-03T06:44:23.126Z,22.39
2017-12-03T06:46:53.477Z,22.41
2017-12-03T06:49:23.988Z,22.57
2017-12-03T06:51:54.411Z,22.70
2017-12-03T06:54:25.223Z,22.76
2017-12-03T06:56:57.395Z,21.88
2017-12-03T06:59:27.719Z,21.47
2017-12-03T07:01:59.242Z,21.67
2017-12-03T07:04:31.464Z,21.92
2017-12-03T07:07:01.991Z,22.11
2017-12-03T07:09:32.903Z,22.29
2017-12-03T07:12:05.244Z,22.28
2017-12-03T07:14:37.820Z,22.34
2017-12-03T07:17:08.023Z,22.40
2017-12-03T07:19:39.352Z,22.38
2017-12-03T07:22:09.712Z,22.39
2017-12-03T07:24:42.084Z,22.41
2017-12-03T07:27:14.575Z,22.40
2017-12-03T07:29:46.651Z,22.38
2017-12-03T07:32:18.216Z,22.48
2017-12-03T07:34:51.119Z,22.46
2017-12-03T07:37:23.294Z,22.50
2017-12-03T07:39:55.907Z,22.65
2017-12-03T07:42:27.255Z,22.88
2017-12-03T07:44:58.797Z,22.92
2017-12-03T07:47:30.369Z,21.95
2017-12-03T07:50:02.472Z,21.75
2017-12-03T07:52:34.776Z,22.05
2017-12-03T07:55:07.064Z,22.41
2017-12-03T07:57:38.289Z,22.54
2017-12-03T08:00:13.344Z,22.65
2017-12-03T08:02:45.686Z,22.69
2017-12-03T08:05:16.233Z,22.71
2017-12-03T08:07:48.553Z,22.74
2017-12-03T08:10:19.077Z,22.79
2017-12-03T08:12:49.298Z,22.75
2017-12-03T08:15:19.745Z,22.72
2017-12-03T08:17:50.264Z,22.74
2017-12-03T08:20:20.903Z,22.77
2017-12-03T08:22:51.316Z,22.82
2017-12-03T08:25:21.991Z,22.85
2017-12-03T08:27:52.415Z,22.92
2017-12-03T08:30:23.308Z,23.03
2017-12-03T08:32:53.700Z,23.12
2017-12-03T08:35:24.092Z,23.51
2017-12-03T08:37:54.730Z,23.39
2017-12-03T08:40:25.414Z,22.56
2017-12-03T08:42:55.806Z,22.22
2017-12-03T08:45:26.608Z,22.15
2017-12-03T08:47:57.047Z,22.21
2017-12-03T08:50:27.410Z,22.62
2017-12-03T08:52:58.127Z,22.94
2017-12-03T08:55:33.476Z,23.49
2017-12-03T08:58:03.813Z,23.42
2017-12-03T09:00:34.371Z,23.19
2017-12-03T09:03:04.905Z,23.11
2017-12-03T09:05:35.585Z,23.10
2017-12-03T09:08:06.201Z,23.08
2017-12-03T09:10:38.385Z,23.06
2017-12-03T09:13:10.745Z,23.13
2017-12-03T09:15:41.255Z,23.24
2017-12-03T09:18:11.733Z,23.18
2017-12-03T09:20:43.866Z,23.21
2017-12-03T09:23:14.705Z,23.33
2017-12-03T09:25:48.300Z,23.39
2017-12-03T09:28:18.792Z,23.65
2017-12-03T09:30:49.374Z,23.56
2017-12-03T09:33:19.847Z,22.62
2017-12-03T09:35:51.210Z,22.33
2017-12-03T09:38:21.758Z,22.24
2017-12-03T09:40:53.039Z,22.39
2017-12-03T09:43:23.851Z,22.61
2017-12-03T09:45:54.224Z,22.75
2017-12-03T09:48:25.402Z,22.86
2017-12-03T09:50:57.702Z,22.93
2017-12-03T09:53:29.030Z,22.93
2017-12-03T09:56:00.800Z,23.01
2017-12-03T09:58:32.120Z,23.11
2017-12-03T10:01:03.785Z,23.16
2017-12-03T10:03:35.162Z,23.15
2017-12-03T10:06:07.380Z,23.18
2017-12-03T10:08:39.095Z,23.23
2017-12-03T10:11:11.299Z,23.15
2017-12-03T10:13:41.764Z,23.34
2017-12-03T10:16:15.664Z,23.34
2017-12-03T10:18:46.891Z,23.49
2017-12-03T10:21:17.373Z,23.80
2017-12-03T10:23:47.824Z,24.07
2017-12-03T10:26:19.650Z,22.94
2017-12-03T10:28:53.254Z,22.50
2017-12-03T10:31:25.531Z,22.42
2017-12-03T10:33:56.892Z,22.59
2017-12-03T10:36:29.066Z,22.71
2017-12-03T10:38:59.638Z,23.05
2017-12-03T10:41:31.475Z,23.54
2017-12-03T10:44:03.749Z,23.75
2017-12-03T10:46:35.368Z,23.51
2017-12-03T10:49:07.083Z,23.48
2017-12-03T10:51:39.805Z,23.43
2017-12-03T10:54:12.301Z,23.57
2017-12-03T10:56:43.666Z,23.57
2017-12-03T10:59:16.124Z,23.58
2017-12-03T11:01:48.649Z,23.55
2017-12-03T11:04:20.049Z,23.46
2017-12-03T11:06:51.390Z,23.62
2017-12-03T11:09:23.622Z,23.71
2017-12-03T11:11:54.031Z,23.81
2017-12-03T11:14:26.327Z,23.99
2017-12-03T11:16:58.773Z,24.36
2017-12-03T11:19:29.166Z,23.49
2017-12-03T11:22:01.788Z,22.90
2017-12-03T11:24:33.310Z,22.60
2017-12-03T11:27:04.944Z,22.56
2017-12-03T11:29:36.265Z,22.83
2017-12-03T11:32:07.508Z,23.12
2017-12-03T11:34:38.378Z,23.24
2017-12-03T11:37:11.058Z,23.22
2017-12-03T11:39:43.234Z,23.38
2017-12-03T11:42:15.514Z,23.49
2017-12-03T11:44:45.957Z,23.48
2017-12-03T11:47:18.081Z,23.54
2017-12-03T11:49:50.336Z,23.59
2017-12-03T11:52:21.529Z,23.57
2017-12-03T11:54:54.112Z,23.58
2017-12-03T11:57:26.324Z,23.64
2017-12-03T11:59:58.596Z,23.67
2017-12-03T12:02:29.400Z,23.80
2017-12-03T12:04:59.939Z,23.88
2017-12-03T12:07:30.250Z,24.21
2017-12-03T12:10:02.644Z,24.16
2017-12-03T12:12:33.171Z,23.11
2017-12-03T12:15:06.479Z,22.73
2017-12-03T12:17:41.263Z,22.66
2017-12-03T12:20:12.812Z,22.53
2017-12-03T12:22:44.985Z,22.86
2017-12-03T12:25:17.906Z,23.16
2017-12-03T12:27:48.689Z,23.57
2017-12-03T12:30:20.840Z,23.92
2017-12-03T12:32:52.271Z,23.84
2017-12-03T12:35:23.702Z,23.78
2017-12-03T12:37:55.981Z,23.76
2017-12-03T12:40:27.645Z,23.75
2017-12-03T12:43:00.007Z,23.78
2017-12-03T12:45:32.658Z,23.78
2017-12-03T12:48:04.438Z,23.81
2017-12-03T12:50:36.396Z,23.82
2017-12-03T12:53:09.200Z,23.95
2017-12-03T12:55:41.932Z,24.05
2017-12-03T12:58:15.023Z,24.26
2017-12-03T13:00:46.901Z,24.71
2017-12-03T13:03:19.813Z,24.04
2017-12-03T13:05:52.776Z,23.20
2017-12-03T13:08:25.394Z,23.02
2017-12-03T13:10:57.218Z,22.82
2017-12-03T13:13:32.829Z,22.92
2017-12-03T13:16:04.613Z,23.30
2017-12-03T13:18:37.424Z,23.83
2017-12-03T13:21:10.043Z,24.36
2017-12-03T13:23:42.294Z,24.10
2017-12-03T13:26:14.517Z,24.01
2017-12-03T13:28:46.313Z,23.96
2017-12-03T13:31:18.232Z,23.87
2017-12-03T13:33:49.954Z,23.97
2017-12-03T13:36:21.862Z,23.96
2017-12-03T13:38:53.850Z,24.00
2017-12-03T13:41:26.052Z,24.02
2017-12-03T13:43:57.811Z,24.03
2017-12-03T13:46:30.746Z,24.13
2017-12-03T13:49:03.245Z,24.18
2017-12-03T13:51:36.472Z,24.34
2017-12-03T13:54:09.143Z,24.90
2017-12-03T13:56:41.945Z,23.88
2017-12-03T13:59:15.160Z,23.20
2017-12-03T14:01:47.194Z,23.12
2017-12-03T14:04:19.078Z,23.33
2017-12-03T14:06:51.583Z,23.63
2017-12-03T14:09:23.551Z,23.80
2017-12-03T14:11:55.360Z,23.86
2017-12-03T14:14:28.303Z,23.93
2017-12-03T14:17:01.109Z,24.01
2017-12-03T14:19:33.296Z,24.03
2017-12-03T14:22:05.108Z,24.02
2017-12-03T14:24:37.125Z,24.09
2017-12-03T14:27:09.363Z,24.15
2017-12-03T14:29:42.291Z,24.25
2017-12-03T14:32:15.379Z,24.17
2017-12-03T14:34:48.143Z,24.20
2017-12-03T14:37:19.690Z,24.25
2017-12-03T14:39:51.892Z,24.40
2017-12-03T14:42:24.507Z,24.55
2017-12-03T14:44:55.447Z,24.92
2017-12-03T14:47:27.795Z,24.54
2017-12-03T14:50:00.534Z,23.46
2017-12-03T14:52:31.511Z,23.22
2017-12-03T14:55:03.453Z,23.56
2017-12-03T14:57:36.933Z,23.92
2017-12-03T15:00:09.677Z,24.05
2017-12-03T15:02:40.713Z,24.10
2017-12-03T15:05:14.220Z,24.09
2017-12-03T15:07:45.436Z,24.08
2017-12-03T15:10:16.427Z,24.11
2017-12-03T15:12:49.385Z,24.06
2017-12-03T15:15:22.011Z,23.95
2017-12-03T15:17:54.744Z,24.02
2017-12-03T15:20:26.964Z,24.04
2017-12-03T15:22:59.091Z,24.03
2017-12-03T15:25:30.438Z,24.09
2017-12-03T15:28:01.749Z,24.05
2017-12-03T15:30:33.135Z,24.22
2017-12-03T15:33:06.125Z,24.21
2017-12-03T15:35:37.134Z,24.37
2017-12-03T15:38:07.967Z,25.08
2017-12-03T15:40:38.983Z,24.36
2017-12-03T15:43:12.023Z,23.42
2017-12-03T15:45:43.370Z,23.21
2017-12-03T15:48:16.061Z,23.58
2017-12-03T15:50:46.962Z,23.89
2017-12-03T15:53:17.858Z,24.03
2017-12-03T15:55:48.852Z,24.13
2017-12-03T15:58:21.720Z,24.17
2017-12-03T16:00:52.838Z,24.17
2017-12-03T16:03:24.158Z,24.08
2017-12-03T16:05:55.112Z,24.11
2017-12-03T16:08:26.067Z,24.10
2017-12-03T16:10:57.226Z,24.14
2017-12-03T16:13:30.025Z,24.12
2017-12-03T16:16:03.082Z,24.15
2017-12-03T16:18:34.231Z,24.22
2017-12-03T16:21:05.211Z,24.21
2017-12-03T16:23:38.470Z,24.28
2017-12-03T16:26:11.156Z,24.30
2017-12-03T16:28:42.019Z,24.60
2017-12-03T16:31:14.760Z,24.77
2017-12-03T16:33:47.517Z,23.68
2017-12-03T16:36:19.976Z,23.30
2017-12-03T16:38:53.917Z,23.55
2017-12-03T16:41:24.784Z,23.79
2017-12-03T16:43:57.049Z,23.86
2017-12-03T16:46:30.034Z,24.03
2017-12-03T16:49:04.108Z,24.05
2017-12-03T16:51:36.760Z,24.06
2017-12-03T16:54:07.719Z,24.08
2017-12-03T16:56:40.542Z,24.07
2017-12-03T16:59:13.310Z,24.06
2017-12-03T17:01:46.041Z,24.15
2017-12-03T17:04:18.049Z,24.16
2017-12-03T17:06:51.296Z,24.15
2017-12-03T17:09:23.921Z,24.19
2017-12-03T17:11:56.800Z,24.21
2017-12-03T17:14:29.524Z,24.19
2017-12-03T17:17:02.137Z,24.21
2017-12-03T17:19:34.880Z,24.36
2017-12-03T17:22:14.352Z,24.94
2017-12-03T17:24:47.093Z,24.42
2017-12-03T17:27:18.521Z,23.50
2017-12-03T17:29:50.301Z,23.25
2017-12-03T17:32:23.032Z,23.07
2017-12-03T17:34:55.775Z,23.26
2017-12-03T17:37:28.709Z,23.64
2017-12-03T17:40:01.393Z,24.23
2017-12-03T17:42:35.000Z,24.66
2017-12-03T17:45:08.860Z,24.39
2017-12-03T17:47:40.268Z,24.11
2017-12-03T17:50:11.289Z,24.09
2017-12-03T17:52:42.182Z,24.00
2017-12-03T17:55:15.030Z,24.10
2017-12-03T17:57:48.193Z,24.12
2017-12-03T18:00:19.919Z,24.20
2017-12-03T18:02:50.963Z,24.26
2017-12-03T18:05:24.272Z,24.33
2017-12-03T18:07:55.293Z,24.36
2017-12-03T18:10:28.274Z,24.38
2017-12-03T18:12:59.571Z,24.74
2017-12-03T18:15:34.863Z,24.72
2017-12-03T18:18:07.754Z,23.65
2017-12-03T18:20:40.845Z,23.38
2017-12-03T18:23:13.581Z,23.56
2017-12-03T18:25:44.973Z,23.92
2017-12-03T18:28:16.224Z,24.02
2017-12-03T18:30:50.039Z,24.14
2017-12-03T18:33:23.006Z,24.10
2017-12-03T18:35:54.341Z,24.09
2017-12-03T18:38:27.738Z,24.10
2017-12-03T18:41:00.942Z,24.11
2017-12-03T18:43:31.964Z,24.13
2017-12-03T18:46:05.545Z,24.20
2017-12-03T18:48:36.725Z,24.15
2017-12-03T18:51:07.998Z,24.24
2017-12-03T18:53:40.867Z,24.34
2017-12-03T18:56:13.739Z,24.27
2017-12-03T18:58:48.088Z,24.28
2017-12-03T19:01:19.294Z,24.43
2017-12-03T19:03:50.415Z,24.48
2017-12-03T19:06:21.556Z,24.89
2017-12-03T19:08:53.183Z,23.99
2017-12-03T19:11:24.513Z,23.42
2017-12-03T19:13:55.535Z,23.29
2017-12-03T19:16:26.446Z,23.57
2017-12-03T19:18:57.459Z,23.80
2017-12-03T19:21:28.490Z,23.99
2017-12-03T19:23:59.799Z,24.06
2017-12-03T19:26:32.988Z,24.11
2017-12-03T19:29:06.213Z,24.06
2017-12-03T19:31:39.106Z,24.05
2017-12-03T19:34:10.758Z,24.07
2017-12-03T19:36:41.876Z,24.09
2017-12-03T19:39:14.717Z,24.05
2017-12-03T19:41:45.954Z,24.08
2017-12-03T19:44:17.346Z,24.09
2017-12-03T19:46:48.388Z,24.17
2017-12-03T19:49:19.180Z,24.07
2017-12-03T19:51:52.013Z,24.20
2017-12-03T19:54:23.023Z,24.33
2017-12-03T19:56:53.893Z,24.75
2017-12-03T19:59:26.022Z,24.12
2017-12-03T20:01:57.019Z,23.37
2017-12-03T20:04:30.152Z,23.21
2017-12-03T20:07:01.074Z,23.58
2017-12-03T20:09:33.151Z,23.85
2017-12-03T20:12:04.297Z,23.99
2017-12-03T20:14:35.932Z,24.11
2017-12-03T20:17:07.243Z,24.11
2017-12-03T20:19:38.397Z,24.11
2017-12-03T20:22:09.449Z,24.18
2017-12-03T20:24:42.906Z,24.17
2017-12-03T20:27:14.295Z,24.15
2017-12-03T20:29:45.676Z,24.22
2017-12-03T20:32:16.912Z,24.21
2017-12-03T20:34:48.486Z,24.23
2017-12-03T20:37:21.098Z,24.25
2017-12-03T20:39:52.362Z,24.25
2017-12-03T20:42:25.802Z,24.28
2017-12-03T20:44:58.153Z,24.38
2017-12-03T20:47:29.622Z,24.62
2017-12-03T20:50:00.563Z,24.68
2017-12-03T20:52:32.891Z,23.67
2017-12-03T20:55:03.611Z,23.36
2017-12-03T20:57:35.030Z,23.58
2017-12-03T21:00:06.704Z,23.97
2017-12-03T21:02:37.531Z,24.13
2017-12-03T21:05:08.799Z,24.20
2017-12-03T21:07:40.565Z,24.27
2017-12-03T21:10:11.927Z,24.34
2017-12-03T21:12:42.819Z,24.32
2017-12-03T21:15:15.916Z,24.34
2017-12-03T21:17:47.544Z,24.24
2017-12-03T21:20:19.897Z,24.25
2017-12-03T21:22:52.857Z,24.26
2017-12-03T21:25:23.791Z,24.32
2017-12-03T21:27:54.901Z,24.33
2017-12-03T21:30:29.679Z,24.29
2017-12-03T21:33:01.339Z,24.42
2017-12-03T21:35:32.510Z,24.46
2017-12-03T21:38:03.280Z,24.65
2017-12-03T21:40:34.310Z,25.19
2017-12-03T21:43:07.465Z,24.01
2017-12-03T21:45:38.527Z,23.52
2017-12-03T21:48:09.439Z,23.52
2017-12-03T21:50:42.576Z,23.94
2017-12-03T21:53:13.561Z,24.25
2017-12-03T21:55:47.506Z,24.30
2017-12-03T21:58:19.084Z,24.34
2017-12-03T22:00:50.145Z,24.35
2017-12-03T22:03:23.067Z,24.27
2017-12-03T22:05:54.416Z,24.30
2017-12-03T22:08:25.261Z,24.32
2017-12-03T22:10:56.506Z,24.35
2017-12-03T22:13:27.487Z,24.33
2017-12-03T22:15:59.506Z,24.35
2017-12-03T22:18:32.200Z,24.40
2017-12-03T22:21:03.219Z,24.46
2017-12-03T22:23:36.018Z,24.41
2017-12-03T22:26:06.857Z,24.52
2017-12-03T22:28:38.258Z,24.58
2017-12-03T22:31:09.271Z,25.04
2017-12-03T22:33:40.553Z,24.10
2017-12-03T22:36:11.470Z,23.57
2017-12-03T22:38:42.454Z,23.65
2017-12-03T22:41:13.608Z,23.95
2017-12-03T22:43:44.493Z,24.18
2017-12-03T22:46:15.384Z,24.26
2017-12-03T22:48:46.562Z,24.28
2017-12-03T22:51:17.767Z,24.31
2017-12-03T22:53:49.591Z,24.36
2017-12-03T22:56:22.200Z,24.46
2017-12-03T22:58:53.173Z,24.41
2017-12-03T23:01:26.147Z,24.34
2017-12-03T23:03:57.032Z,24.31
2017-12-03T23:06:27.896Z,24.25
2017-12-03T23:08:58.761Z,24.28
2017-12-03T23:11:29.806Z,24.35
2017-12-03T23:14:01.076Z,24.43
2017-12-03T23:16:33.779Z,24.46
2017-12-03T23:19:04.616Z,24.56
2017-12-03T23:21:35.516Z,25.09
2017-12-03T23:24:08.780Z,24.23
2017-12-03T23:26:40.789Z,23.54
2017-12-03T23:29:11.710Z,23.65
2017-12-03T23:31:42.725Z,23.87
2017-12-03T23:34:14.029Z,24.14
2017-12-03T23:36:44.729Z,24.24
2017-12-03T23:39:15.621Z,24.32
2017-12-03T23:41:48.442Z,24.39
2017-12-03T23:44:21.154Z,24.44
2017-12-03T23:46:52.106Z,24.39
2017-12-03T23:49:23.052Z,24.38
2017-12-03T23:51:53.932Z,24.42
2017-12-03T23:54:24.724Z,24.46
2017-12-03T23:56:55.618Z,24.39
2017-12-03T23:59:26.559Z,24.40
